sensor_id;sensor_type;location;lat;lon;timestamp;pressure;altitude;pressure_sealevel;temperature;humidity
23261;BME280;11799;47.740;-3.390;2022-12-08T00:02:16;101422.69;;;3.59;82.92
23261;BME280;11799;47.740;-3.390;2022-12-08T00:04:42;101428.81;;;3.58;83.09
23261;BME280;11799;47.740;-3.390;2022-12-08T00:07:26;101419.91;;;3.63;83.47
23261;BME280;11799;47.740;-3.390;2022-12-08T00:10:10;101412.97;;;3.62;83.24
23261;BME280;11799;47.740;-3.390;2022-12-08T00:12:35;101419.91;;;3.63;83.26
23261;BME280;11799;47.740;-3.390;2022-12-08T00:15:01;101421.72;;;3.61;83.10
23261;BME280;11799;47.740;-3.390;2022-12-08T00:17:26;101406.84;;;3.63;83.23
23261;BME280;11799;47.740;-3.390;2022-12-08T00:19:52;101397.19;;;3.65;82.93
23261;BME280;11799;47.740;-3.390;2022-12-08T00:22:17;101397.19;;;3.65;82.91
23261;BME280;11799;47.740;-3.390;2022-12-08T00:24:43;101385.88;;;3.65;83.21
23261;BME280;11799;47.740;-3.390;2022-12-08T00:27:12;101384.06;;;3.67;83.48
23261;BME280;11799;47.740;-3.390;2022-12-08T00:29:38;101372.69;;;3.68;83.09
23261;BME280;11799;47.740;-3.390;2022-12-08T00:32:05;101369.97;;;3.71;82.93
23261;BME280;11799;47.740;-3.390;2022-12-08T00:34:31;101376.88;;;3.72;83.50
23261;BME280;11799;47.740;-3.390;2022-12-08T00:36:57;101368.38;;;3.67;83.04
23261;BME280;11799;47.740;-3.390;2022-12-08T00:39:23;101356.19;;;3.68;83.38
23261;BME280;11799;47.740;-3.390;2022-12-08T00:41:49;101363.91;;;3.71;82.68
23261;BME280;11799;47.740;-3.390;2022-12-08T00:44:33;101359.53;;;3.71;82.93
23261;BME280;11799;47.740;-3.390;2022-12-08T00:46:58;101358.66;;;3.71;82.95
23261;BME280;11799;47.740;-3.390;2022-12-08T00:49:24;101345.59;;;3.71;82.98
23261;BME280;11799;47.740;-3.390;2022-12-08T00:51:49;101353.44;;;3.71;83.05
23261;BME280;11799;47.740;-3.390;2022-12-08T00:54:15;101348.28;;;3.69;83.13
23261;BME280;11799;47.740;-3.390;2022-12-08T00:56:41;101346.47;;;3.71;83.14
23261;BME280;11799;47.740;-3.390;2022-12-08T00:59:07;101339.66;;;3.67;83.09
23261;BME280;11799;47.740;-3.390;2022-12-08T01:01:34;101336.06;;;3.70;83.04
23261;BME280;11799;47.740;-3.390;2022-12-08T01:04:07;101334.38;;;3.69;82.80
23261;BME280;11799;47.740;-3.390;2022-12-08T01:06:36;101327.31;;;3.71;83.40
23261;BME280;11799;47.740;-3.390;2022-12-08T01:09:04;101320.53;;;3.67;83.02
23261;BME280;11799;47.740;-3.390;2022-12-08T01:11:30;101324.78;;;3.69;83.04
23261;BME280;11799;47.740;-3.390;2022-12-08T01:13:55;101327.31;;;3.71;83.22
23261;BME280;11799;47.740;-3.390;2022-12-08T01:16:23;101322.88;;;3.73;83.39
23261;BME280;11799;47.740;-3.390;2022-12-08T01:18:49;101315.00;;;3.74;83.29
23261;BME280;11799;47.740;-3.390;2022-12-08T01:21:15;101310.69;;;3.73;83.63
23261;BME280;11799;47.740;-3.390;2022-12-08T01:23:41;101309.16;;;3.68;83.58
23261;BME280;11799;47.740;-3.390;2022-12-08T01:26:08;101298.66;;;3.69;83.17
23261;BME280;11799;47.740;-3.390;2022-12-08T01:28:34;101311.78;;;3.68;83.53
23261;BME280;11799;47.740;-3.390;2022-12-08T01:31:00;101317.06;;;3.66;83.23
23261;BME280;11799;47.740;-3.390;2022-12-08T01:33:26;101311.91;;;3.64;83.16
23261;BME280;11799;47.740;-3.390;2022-12-08T01:35:53;101318.94;;;3.62;83.44
23261;BME280;11799;47.740;-3.390;2022-12-08T01:38:20;101321.63;;;3.61;83.16
23261;BME280;11799;47.740;-3.390;2022-12-08T01:40:45;101313.91;;;3.58;83.02
23261;BME280;11799;47.740;-3.390;2022-12-08T01:43:15;101307.78;;;3.59;83.12
23261;BME280;11799;47.740;-3.390;2022-12-08T01:45:41;101306.03;;;3.59;83.17
23261;BME280;11799;47.740;-3.390;2022-12-08T01:48:11;101303.28;;;3.62;83.74
23261;BME280;11799;47.740;-3.390;2022-12-08T01:50:37;101301.53;;;3.63;83.77
23261;BME280;11799;47.740;-3.390;2022-12-08T01:53:14;101288.34;;;3.66;83.72
23261;BME280;11799;47.740;-3.390;2022-12-08T01:55:43;101289.25;;;3.65;83.63
23261;BME280;11799;47.740;-3.390;2022-12-08T01:58:21;101291.00;;;3.64;83.85
23261;BME280;11799;47.740;-3.390;2022-12-08T02:00:49;101288.47;;;3.63;84.19
23261;BME280;11799;47.740;-3.390;2022-12-08T02:03:24;101285.84;;;3.63;83.58
23261;BME280;11799;47.740;-3.390;2022-12-08T02:05:51;101285.84;;;3.63;83.98
23261;BME280;11799;47.740;-3.390;2022-12-08T02:08:18;101286.69;;;3.63;83.83
23261;BME280;11799;47.740;-3.390;2022-12-08T02:10:45;101279.91;;;3.59;83.90
23261;BME280;11799;47.740;-3.390;2022-12-08T02:13:14;101283.34;;;3.60;83.52
23261;BME280;11799;47.740;-3.390;2022-12-08T02:34:52;101272.84;;;3.41;83.97
23261;BME280;11799;47.740;-3.390;2022-12-08T02:37:36;101267.75;;;3.38;83.41
23261;BME280;11799;47.740;-3.390;2022-12-08T02:40:14;101268.66;;;3.37;83.44
23261;BME280;11799;47.740;-3.390;2022-12-08T02:42:48;101263.50;;;3.36;83.32
23261;BME280;11799;47.740;-3.390;2022-12-08T02:45:42;101261.06;;;3.31;83.62
23261;BME280;11799;47.740;-3.390;2022-12-08T02:48:09;101256.78;;;3.30;83.78
23261;BME280;11799;47.740;-3.390;2022-12-08T02:50:35;101256.84;;;3.28;83.84
23261;BME280;11799;47.740;-3.390;2022-12-08T02:53:01;101252.84;;;3.20;83.44
23261;BME280;11799;47.740;-3.390;2022-12-08T02:55:39;101251.78;;;3.24;83.22
23261;BME280;11799;47.740;-3.390;2022-12-08T03:00:52;101245.31;;;3.12;83.89
23261;BME280;11799;47.740;-3.390;2022-12-08T03:03:32;101236.56;;;3.13;83.91
23261;BME280;11799;47.740;-3.390;2022-12-08T03:08:54;101229.22;;;3.01;82.91
23261;BME280;11799;47.740;-3.390;2022-12-08T03:11:45;101227.47;;;3.02;83.48
23261;BME280;11799;47.740;-3.390;2022-12-08T03:14:15;101221.53;;;2.98;83.58
23261;BME280;11799;47.740;-3.390;2022-12-08T03:16:43;101218.91;;;2.98;83.74
23261;BME280;11799;47.740;-3.390;2022-12-08T03:19:40;101213.81;;;2.95;83.78
23261;BME280;11799;47.740;-3.390;2022-12-08T03:22:07;101221.06;;;2.88;83.48
23261;BME280;11799;47.740;-3.390;2022-12-08T03:24:39;101214.84;;;2.91;83.62
23261;BME280;11799;47.740;-3.390;2022-12-08T03:27:14;101219.22;;;2.90;84.22
23261;BME280;11799;47.740;-3.390;2022-12-08T03:29:44;101208.19;;;2.84;84.04
23261;BME280;11799;47.740;-3.390;2022-12-08T03:32:33;101203.03;;;2.82;83.92
23261;BME280;11799;47.740;-3.390;2022-12-08T03:35:03;101203.84;;;2.84;84.45
23261;BME280;11799;47.740;-3.390;2022-12-08T03:37:29;101196.84;;;2.85;84.52
23261;BME280;11799;47.740;-3.390;2022-12-08T03:39:55;101197.66;;;2.87;84.39
23261;BME280;11799;47.740;-3.390;2022-12-08T03:42:21;101205.47;;;2.87;84.71
23261;BME280;11799;47.740;-3.390;2022-12-08T03:44:47;101200.31;;;2.85;84.82
23261;BME280;11799;47.740;-3.390;2022-12-08T03:47:12;101200.38;;;2.84;84.63
23261;BME280;11799;47.740;-3.390;2022-12-08T03:49:38;101198.63;;;2.84;84.25
23261;BME280;11799;47.740;-3.390;2022-12-08T03:52:04;101192.56;;;2.84;84.70
23261;BME280;11799;47.740;-3.390;2022-12-08T03:54:29;101188.50;;;2.77;84.64
23261;BME280;11799;47.740;-3.390;2022-12-08T03:56:55;101187.56;;;2.78;84.28
23261;BME280;11799;47.740;-3.390;2022-12-08T03:59:20;101191.16;;;2.75;84.66
23261;BME280;11799;47.740;-3.390;2022-12-08T04:01:46;101179.88;;;2.75;84.89
23261;BME280;11799;47.740;-3.390;2022-12-08T04:04:12;101176.41;;;2.74;84.64
23261;BME280;11799;47.740;-3.390;2022-12-08T04:06:37;101176.41;;;2.74;84.58
23261;BME280;11799;47.740;-3.390;2022-12-08T04:09:03;101171.31;;;2.71;84.43
23261;BME280;11799;47.740;-3.390;2022-12-08T04:11:28;101168.72;;;2.71;84.70
23261;BME280;11799;47.740;-3.390;2022-12-08T04:13:54;101158.34;;;2.70;84.71
23261;BME280;11799;47.740;-3.390;2022-12-08T04:16:22;101154.75;;;2.72;85.03
23261;BME280;11799;47.740;-3.390;2022-12-08T04:18:48;101151.25;;;2.73;85.06
23261;BME280;11799;47.740;-3.390;2022-12-08T04:21:13;101149.59;;;2.71;84.99
23261;BME280;11799;47.740;-3.390;2022-12-08T04:23:40;101134.69;;;2.74;85.36
23261;BME280;11799;47.740;-3.390;2022-12-08T04:26:05;101131.22;;;2.74;84.76
23261;BME280;11799;47.740;-3.390;2022-12-08T04:28:31;101129.47;;;2.74;85.05
23261;BME280;11799;47.740;-3.390;2022-12-08T04:30:57;101131.16;;;2.75;85.22
23261;BME280;11799;47.740;-3.390;2022-12-08T04:33:23;101131.28;;;2.72;85.23
23261;BME280;11799;47.740;-3.390;2022-12-08T04:35:49;101129.66;;;2.70;84.43
23261;BME280;11799;47.740;-3.390;2022-12-08T04:38:15;101136.63;;;2.69;84.91
23261;BME280;11799;47.740;-3.390;2022-12-08T04:40:40;101123.72;;;2.66;84.30
23261;BME280;11799;47.740;-3.390;2022-12-08T04:43:06;101126.19;;;2.69;84.72
23261;BME280;11799;47.740;-3.390;2022-12-08T04:45:32;101125.22;;;2.72;84.57
23261;BME280;11799;47.740;-3.390;2022-12-08T04:47:58;101127.97;;;2.69;84.66
23261;BME280;11799;47.740;-3.390;2022-12-08T04:50:24;101122.75;;;2.69;84.62
23261;BME280;11799;47.740;-3.390;2022-12-08T04:52:50;101112.25;;;2.70;85.00
23261;BME280;11799;47.740;-3.390;2022-12-08T04:55:16;101108.00;;;2.68;84.84
23261;BME280;11799;47.740;-3.390;2022-12-08T04:57:42;101102.06;;;2.64;84.87
23261;BME280;11799;47.740;-3.390;2022-12-08T05:00:08;101096.72;;;2.67;84.68
23261;BME280;11799;47.740;-3.390;2022-12-08T05:02:35;101099.22;;;2.70;84.83
23261;BME280;11799;47.740;-3.390;2022-12-08T05:05:00;101098.31;;;2.71;84.79
23261;BME280;11799;47.740;-3.390;2022-12-08T05:07:26;101103.53;;;2.71;85.29
23261;BME280;11799;47.740;-3.390;2022-12-08T05:09:52;101093.22;;;2.68;84.98
23261;BME280;11799;47.740;-3.390;2022-12-08T05:12:17;101098.66;;;2.62;84.58
23261;BME280;11799;47.740;-3.390;2022-12-08T05:14:43;101089.16;;;2.61;84.87
23261;BME280;11799;47.740;-3.390;2022-12-08T05:17:08;101084.84;;;2.60;84.48
23261;BME280;11799;47.740;-3.390;2022-12-08T05:19:34;101091.88;;;2.58;84.60
23261;BME280;11799;47.740;-3.390;2022-12-08T05:22:00;101084.78;;;2.61;85.19
23261;BME280;11799;47.740;-3.390;2022-12-08T05:24:25;101087.53;;;2.58;84.63
23261;BME280;11799;47.740;-3.390;2022-12-08T05:26:51;101082.38;;;2.57;84.68
23261;BME280;11799;47.740;-3.390;2022-12-08T05:29:16;101068.47;;;2.56;84.49
23261;BME280;11799;47.740;-3.390;2022-12-08T05:31:42;101071.81;;;2.60;85.05
23261;BME280;11799;47.740;-3.390;2022-12-08T05:34:07;101070.84;;;2.62;85.41
23261;BME280;11799;47.740;-3.390;2022-12-08T05:36:33;101071.03;;;2.58;85.00
23261;BME280;11799;47.740;-3.390;2022-12-08T05:38:59;101067.50;;;2.59;84.83
23261;BME280;11799;47.740;-3.390;2022-12-08T05:41:24;101068.53;;;2.55;84.67
23261;BME280;11799;47.740;-3.390;2022-12-08T05:43:50;101072.00;;;2.55;85.18
23261;BME280;11799;47.740;-3.390;2022-12-08T05:46:16;101074.59;;;2.55;84.56
23261;BME280;11799;47.740;-3.390;2022-12-08T05:48:42;101073.81;;;2.53;85.01
23261;BME280;11799;47.740;-3.390;2022-12-08T05:51:17;101067.88;;;2.50;84.90
23261;BME280;11799;47.740;-3.390;2022-12-08T05:53:44;101068.66;;;2.52;85.22
23261;BME280;11799;47.740;-3.390;2022-12-08T05:56:10;101062.59;;;2.51;84.81
23261;BME280;11799;47.740;-3.390;2022-12-08T05:58:35;101066.78;;;2.55;85.44
23261;BME280;11799;47.740;-3.390;2022-12-08T06:01:01;101064.97;;;2.57;85.37
23261;BME280;11799;47.740;-3.390;2022-12-08T06:03:27;101066.78;;;2.55;85.42
23261;BME280;11799;47.740;-3.390;2022-12-08T06:05:53;101072.97;;;2.53;84.82
23261;BME280;11799;47.740;-3.390;2022-12-08T06:08:18;101071.34;;;2.50;85.02
23261;BME280;11799;47.740;-3.390;2022-12-08T06:10:45;101068.84;;;2.47;85.18
23261;BME280;11799;47.740;-3.390;2022-12-08T06:13:11;101065.34;;;2.48;85.35
23261;BME280;11799;47.740;-3.390;2022-12-08T06:15:37;101056.66;;;2.48;85.38
23261;BME280;11799;47.740;-3.390;2022-12-08T06:18:04;101059.22;;;2.49;85.63
23261;BME280;11799;47.740;-3.390;2022-12-08T06:20:30;101061.88;;;2.48;85.63
23261;BME280;11799;47.740;-3.390;2022-12-08T06:22:56;101049.81;;;2.45;85.40
23261;BME280;11799;47.740;-3.390;2022-12-08T06:25:22;101038.59;;;2.43;85.52
23261;BME280;11799;47.740;-3.390;2022-12-08T06:27:48;101050.06;;;2.39;84.94
23261;BME280;11799;47.740;-3.390;2022-12-08T06:30:14;101047.44;;;2.39;84.98
23261;BME280;11799;47.740;-3.390;2022-12-08T06:32:40;101043.09;;;2.40;85.26
23261;BME280;11799;47.740;-3.390;2022-12-08T06:35:06;101034.34;;;2.41;85.30
23261;BME280;11799;47.740;-3.390;2022-12-08T06:37:31;101031.94;;;2.36;85.14
23261;BME280;11799;47.740;-3.390;2022-12-08T06:39:57;101031.16;;;2.34;85.19
23261;BME280;11799;47.740;-3.390;2022-12-08T06:42:23;101032.78;;;2.37;84.96
23261;BME280;11799;47.740;-3.390;2022-12-08T06:45:08;101024.13;;;2.36;85.13
23261;BME280;11799;47.740;-3.390;2022-12-08T06:47:34;101029.22;;;2.39;85.23
23261;BME280;11799;47.740;-3.390;2022-12-08T06:50:00;101028.34;;;2.39;85.11
23261;BME280;11799;47.740;-3.390;2022-12-08T06:52:25;101017.88;;;2.40;85.34
23261;BME280;11799;47.740;-3.390;2022-12-08T06:54:51;101029.03;;;2.44;85.31
23261;BME280;11799;47.740;-3.390;2022-12-08T06:57:16;101024.78;;;2.41;85.45
23261;BME280;11799;47.740;-3.390;2022-12-08T06:59:43;101033.38;;;2.43;85.32
23261;BME280;11799;47.740;-3.390;2022-12-08T07:02:09;101031.50;;;2.47;85.39
23261;BME280;11799;47.740;-3.390;2022-12-08T07:04:34;101028.13;;;2.45;86.13
23261;BME280;11799;47.740;-3.390;2022-12-08T07:07:00;101029.81;;;2.46;85.57
23261;BME280;11799;47.740;-3.390;2022-12-08T07:09:25;101022.13;;;2.43;85.32
23261;BME280;11799;47.740;-3.390;2022-12-08T07:11:51;101017.81;;;2.42;85.84
23261;BME280;11799;47.740;-3.390;2022-12-08T07:14:17;101021.25;;;2.42;85.41
23261;BME280;11799;47.740;-3.390;2022-12-08T07:16:44;101013.75;;;2.35;85.32
23261;BME280;11799;47.740;-3.390;2022-12-08T07:19:10;101020.78;;;2.32;85.08
23261;BME280;11799;47.740;-3.390;2022-12-08T07:21:35;101013.06;;;2.31;85.10
23261;BME280;11799;47.740;-3.390;2022-12-08T07:24:01;101013.88;;;2.31;84.78
23261;BME280;11799;47.740;-3.390;2022-12-08T07:26:26;101013.06;;;2.31;85.10
23261;BME280;11799;47.740;-3.390;2022-12-08T07:28:52;101007.75;;;2.32;84.99
23261;BME280;11799;47.740;-3.390;2022-12-08T07:31:20;101001.78;;;2.30;85.18
23261;BME280;11799;47.740;-3.390;2022-12-08T07:33:47;100999.19;;;2.30;85.31
23261;BME280;11799;47.740;-3.390;2022-12-08T07:36:12;101000.03;;;2.31;84.88
23261;BME280;11799;47.740;-3.390;2022-12-08T07:38:38;100997.28;;;2.34;85.18
23261;BME280;11799;47.740;-3.390;2022-12-08T07:41:04;100991.16;;;2.35;85.67
23261;BME280;11799;47.740;-3.390;2022-12-08T07:43:30;100992.28;;;2.29;85.35
23261;BME280;11799;47.740;-3.390;2022-12-08T07:45:57;100997.56;;;2.28;85.20
23261;BME280;11799;47.740;-3.390;2022-12-08T07:48:22;100984.41;;;2.31;85.19
23261;BME280;11799;47.740;-3.390;2022-12-08T07:50:48;100984.41;;;2.31;85.23
23261;BME280;11799;47.740;-3.390;2022-12-08T07:53:14;100982.03;;;2.25;84.90
23261;BME280;11799;47.740;-3.390;2022-12-08T07:55:43;100989.91;;;2.23;85.10
23261;BME280;11799;47.740;-3.390;2022-12-08T07:58:09;100995.31;;;2.19;84.61
23261;BME280;11799;47.740;-3.390;2022-12-08T08:00:36;100992.66;;;2.20;84.89
23261;BME280;11799;47.740;-3.390;2022-12-08T08:03:01;100988.22;;;2.22;85.26
23261;BME280;11799;47.740;-3.390;2022-12-08T08:05:28;100989.06;;;2.23;85.09
23261;BME280;11799;47.740;-3.390;2022-12-08T08:07:54;100989.31;;;2.17;85.08
23261;BME280;11799;47.740;-3.390;2022-12-08T08:10:19;100989.25;;;2.18;84.94
23261;BME280;11799;47.740;-3.390;2022-12-08T08:12:45;100994.47;;;2.18;85.19
23261;BME280;11799;47.740;-3.390;2022-12-08T08:15:10;100996.09;;;2.21;85.24
23261;BME280;11799;47.740;-3.390;2022-12-08T08:17:36;100989.25;;;2.18;85.59
23261;BME280;11799;47.740;-3.390;2022-12-08T08:20:04;100985.75;;;2.19;85.27
23261;BME280;11799;47.740;-3.390;2022-12-08T08:22:31;100977.81;;;2.22;85.33
23261;BME280;11799;47.740;-3.390;2022-12-08T08:24:58;100977.81;;;2.22;86.05
23261;BME280;11799;47.740;-3.390;2022-12-08T08:27:24;100977.72;;;2.24;85.68
23261;BME280;11799;47.740;-3.390;2022-12-08T08:29:50;100970.88;;;2.21;85.85
23261;BME280;11799;47.740;-3.390;2022-12-08T08:32:16;100956.94;;;2.22;85.60
23261;BME280;11799;47.740;-3.390;2022-12-08T08:34:42;100950.78;;;2.25;86.03
23261;BME280;11799;47.740;-3.390;2022-12-08T08:37:07;100960.34;;;2.24;85.48
23261;BME280;11799;47.740;-3.390;2022-12-08T08:39:33;100962.22;;;2.41;86.35
23261;BME280;11799;47.740;-3.390;2022-12-08T08:41:58;100953.69;;;2.58;87.03
23261;BME280;11799;47.740;-3.390;2022-12-08T08:44:24;100954.94;;;2.70;87.39
23261;BME280;11799;47.740;-3.390;2022-12-08T08:46:50;100957.22;;;2.77;87.09
23261;BME280;11799;47.740;-3.390;2022-12-08T08:49:15;100963.81;;;2.86;87.01
23261;BME280;11799;47.740;-3.390;2022-12-08T08:51:41;100957.66;;;2.87;86.26
23261;BME280;11799;47.740;-3.390;2022-12-08T08:54:08;100957.31;;;2.94;85.95
23261;BME280;11799;47.740;-3.390;2022-12-08T08:56:33;100954.56;;;2.97;85.52
23261;BME280;11799;47.740;-3.390;2022-12-08T08:58:59;100951.03;;;2.98;85.50
23261;BME280;11799;47.740;-3.390;2022-12-08T09:01:26;100938.72;;;3.02;85.75
23261;BME280;11799;47.740;-3.390;2022-12-08T09:03:52;100943.66;;;3.08;85.96
23261;BME280;11799;47.740;-3.390;2022-12-08T09:06:19;100940.84;;;3.13;85.65
23261;BME280;11799;47.740;-3.390;2022-12-08T09:08:46;100939.00;;;3.15;85.43
23261;BME280;11799;47.740;-3.390;2022-12-08T09:11:12;100936.19;;;3.19;85.24
23261;BME280;11799;47.740;-3.390;2022-12-08T09:13:38;100944.03;;;3.19;85.14
23261;BME280;11799;47.740;-3.390;2022-12-08T09:16:06;100942.19;;;3.21;85.10
23261;BME280;11799;47.740;-3.390;2022-12-08T09:18:32;100940.34;;;3.23;84.83
23261;BME280;11799;47.740;-3.390;2022-12-08T09:21:04;100941.00;;;3.28;84.65
23261;BME280;11799;47.740;-3.390;2022-12-08T09:23:29;100944.97;;;3.37;85.42
23261;BME280;11799;47.740;-3.390;2022-12-08T09:25:55;100945.88;;;3.36;84.71
23261;BME280;11799;47.740;-3.390;2022-12-08T09:28:20;100939.44;;;3.43;84.74
23261;BME280;11799;47.740;-3.390;2022-12-08T09:30:46;100946.91;;;3.51;84.29
23261;BME280;11799;47.740;-3.390;2022-12-08T09:33:11;100942.09;;;3.60;84.05
23261;BME280;11799;47.740;-3.390;2022-12-08T09:35:39;100933.97;;;3.67;83.82
23261;BME280;11799;47.740;-3.390;2022-12-08T09:38:04;100936.72;;;3.82;83.42
23261;BME280;11799;47.740;-3.390;2022-12-08T09:40:31;100937.50;;;4.19;83.01
23261;BME280;11799;47.740;-3.390;2022-12-08T09:46:06;100925.09;;;5.23;78.74
23261;BME280;11799;47.740;-3.390;2022-12-08T09:48:40;100921.41;;;5.74;77.90
23261;BME280;11799;47.740;-3.390;2022-12-08T09:51:08;100923.19;;;5.89;74.90
23261;BME280;11799;47.740;-3.390;2022-12-08T09:53:59;100909.75;;;6.40;74.64
23261;BME280;11799;47.740;-3.390;2022-12-08T09:56:31;100916.75;;;6.83;72.25
23261;BME280;11799;47.740;-3.390;2022-12-08T10:01:51;100919.47;;;7.10;70.41
23261;BME280;11799;47.740;-3.390;2022-12-08T10:04:25;100913.28;;;6.97;70.33
23261;BME280;11799;47.740;-3.390;2022-12-08T10:17:46;100917.34;;;6.44;72.33
23261;BME280;11799;47.740;-3.390;2022-12-08T10:20:17;100911.06;;;6.33;72.29
23261;BME280;11799;47.740;-3.390;2022-12-08T10:22:45;100907.47;;;6.19;72.55
23261;BME280;11799;47.740;-3.390;2022-12-08T10:25:19;100912.50;;;6.08;72.95
23261;BME280;11799;47.740;-3.390;2022-12-08T10:27:52;100904.31;;;5.99;73.12
23261;BME280;11799;47.740;-3.390;2022-12-08T10:30:20;100904.75;;;5.91;73.87
23261;BME280;11799;47.740;-3.390;2022-12-08T10:32:48;100894.56;;;5.85;74.03
23261;BME280;11799;47.740;-3.390;2022-12-08T10:35:17;100887.19;;;5.77;74.07
23261;BME280;11799;47.740;-3.390;2022-12-08T10:38:00;100887.53;;;5.71;74.69
23261;BME280;11799;47.740;-3.390;2022-12-08T10:40:29;100878.91;;;5.69;74.63
23261;BME280;11799;47.740;-3.390;2022-12-08T10:42:59;100874.00;;;5.63;74.97
23261;BME280;11799;47.740;-3.390;2022-12-08T10:45:44;100867.34;;;5.57;74.94
23261;BME280;11799;47.740;-3.390;2022-12-08T10:48:28;100864.81;;;5.56;75.27
23261;BME280;11799;47.740;-3.390;2022-12-08T10:50:58;100868.53;;;5.52;76.21
23261;BME280;11799;47.740;-3.390;2022-12-08T10:53:29;100873.00;;;5.50;76.34
23261;BME280;11799;47.740;-3.390;2022-12-08T11:01:20;100858.28;;;5.47;76.67
23261;BME280;11799;47.740;-3.390;2022-12-08T11:03:56;100866.84;;;5.51;77.06
23261;BME280;11799;47.740;-3.390;2022-12-08T11:06:43;100865.06;;;5.51;76.49
23261;BME280;11799;47.740;-3.390;2022-12-08T11:11:51;100858.53;;;5.58;76.91
23261;BME280;11799;47.740;-3.390;2022-12-08T11:16:50;100856.00;;;5.57;76.23
23261;BME280;11799;47.740;-3.390;2022-12-08T11:19:18;100855.94;;;5.58;76.03
23261;BME280;11799;47.740;-3.390;2022-12-08T11:21:44;100847.22;;;5.58;75.96
23261;BME280;11799;47.740;-3.390;2022-12-08T11:26:40;100841.56;;;5.66;76.15
23261;BME280;11799;47.740;-3.390;2022-12-08T11:29:12;100837.81;;;5.70;75.49
23261;BME280;11799;47.740;-3.390;2022-12-08T11:31:42;100841.19;;;5.72;75.27
23261;BME280;11799;47.740;-3.390;2022-12-08T11:36:56;100831.66;;;5.71;75.08
23261;BME280;11799;47.740;-3.390;2022-12-08T11:39:25;100832.88;;;5.79;75.48
23261;BME280;11799;47.740;-3.390;2022-12-08T11:41:52;100824.28;;;5.77;74.93
23261;BME280;11799;47.740;-3.390;2022-12-08T11:44:29;100831.09;;;5.80;74.94
23261;BME280;11799;47.740;-3.390;2022-12-08T11:47:04;100815.56;;;5.77;74.95
23261;BME280;11799;47.740;-3.390;2022-12-08T11:49:37;100814.63;;;5.78;74.60
23261;BME280;11799;47.740;-3.390;2022-12-08T11:54:49;100811.91;;;5.79;74.86
23261;BME280;11799;47.740;-3.390;2022-12-08T11:57:17;100818.47;;;5.72;74.32
23261;BME280;11799;47.740;-3.390;2022-12-08T11:59:50;100816.31;;;5.79;74.93
23261;BME280;11799;47.740;-3.390;2022-12-08T12:02:21;100811.81;;;5.81;75.19
23261;BME280;11799;47.740;-3.390;2022-12-08T12:07:39;100812.84;;;5.78;74.56
23261;BME280;11799;47.740;-3.390;2022-12-08T12:11:04;100807.34;;;5.83;75.37
23261;BME280;11799;47.740;-3.390;2022-12-08T12:19:01;100796.41;;;5.76;74.24
23261;BME280;11799;47.740;-3.390;2022-12-08T12:21:40;100793.56;;;5.79;74.79
23261;BME280;11799;47.740;-3.390;2022-12-08T12:24:33;100796.94;;;5.81;74.52
23261;BME280;11799;47.740;-3.390;2022-12-08T12:29:48;100772.75;;;5.92;75.09
23261;BME280;11799;47.740;-3.390;2022-12-08T12:32:15;100775.28;;;5.93;74.96
23261;BME280;11799;47.740;-3.390;2022-12-08T12:34:58;100774.25;;;5.96;74.12
23261;BME280;11799;47.740;-3.390;2022-12-08T12:37:38;100783.72;;;5.99;74.71
23261;BME280;11799;47.740;-3.390;2022-12-08T12:40:23;100777.56;;;6.00;74.56
23261;BME280;11799;47.740;-3.390;2022-12-08T12:55:57;100769.22;;;6.07;73.44
23261;BME280;11799;47.740;-3.390;2022-12-08T13:03:40;100753.59;;;6.06;72.26
23261;BME280;11799;47.740;-3.390;2022-12-08T13:06:07;100752.84;;;6.04;71.99
23261;BME280;11799;47.740;-3.390;2022-12-08T13:08:38;100745.91;;;6.03;71.81
23261;BME280;11799;47.740;-3.390;2022-12-08T13:11:08;100742.34;;;6.04;72.65
23261;BME280;11799;47.740;-3.390;2022-12-08T13:13:38;100742.63;;;5.99;71.73
23261;BME280;11799;47.740;-3.390;2022-12-08T13:16:23;100741.78;;;5.99;71.98
23261;BME280;11799;47.740;-3.390;2022-12-08T13:18:51;100734.38;;;5.91;71.28
23261;BME280;11799;47.740;-3.390;2022-12-08T13:21:22;100719.50;;;5.91;71.44
23261;BME280;11799;47.740;-3.390;2022-12-08T13:24:11;100725.59;;;5.92;71.59
23261;BME280;11799;47.740;-3.390;2022-12-08T13:29:28;100709.44;;;5.84;71.17
23261;BME280;11799;47.740;-3.390;2022-12-08T13:31:55;100716.53;;;5.82;71.62
23261;BME280;11799;47.740;-3.390;2022-12-08T13:34:24;100713.00;;;5.83;72.31
23261;BME280;11799;47.740;-3.390;2022-12-08T13:37:21;100705.69;;;5.74;71.77
23261;BME280;11799;47.740;-3.390;2022-12-08T13:40:04;100708.88;;;5.79;72.38
23261;BME280;11799;47.740;-3.390;2022-12-08T13:42:42;100694.91;;;5.78;72.19
23261;BME280;11799;47.740;-3.390;2022-12-08T13:50:39;100689.97;;;5.74;71.55
23261;BME280;11799;47.740;-3.390;2022-12-08T13:55:48;100687.53;;;5.71;70.71
23261;BME280;11799;47.740;-3.390;2022-12-08T13:58:25;100671.16;;;5.67;69.75
23261;BME280;11799;47.740;-3.390;2022-12-08T14:01:15;100672.09;;;5.66;69.99
23261;BME280;11799;47.740;-3.390;2022-12-08T14:03:53;100675.84;;;5.62;69.63
23261;BME280;11799;47.740;-3.390;2022-12-08T14:06:29;100673.13;;;5.63;69.80
23261;BME280;11799;47.740;-3.390;2022-12-08T14:09:00;100669.66;;;5.63;70.17
23261;BME280;11799;47.740;-3.390;2022-12-08T14:11:34;100666.28;;;5.61;69.53
23261;BME280;11799;47.740;-3.390;2022-12-08T14:16:42;100638.50;;;5.58;69.11
23261;BME280;11799;47.740;-3.390;2022-12-08T14:19:17;100645.50;;;5.58;69.41
23261;BME280;11799;47.740;-3.390;2022-12-08T14:22:00;100636.81;;;5.57;69.37
23261;BME280;11799;47.740;-3.390;2022-12-08T14:24:28;100633.34;;;5.57;69.67
23261;BME280;11799;47.740;-3.390;2022-12-08T14:26:58;100631.56;;;5.57;69.35
23261;BME280;11799;47.740;-3.390;2022-12-08T14:32:33;100621.94;;;5.58;69.89
23261;BME280;11799;47.740;-3.390;2022-12-08T14:37:41;100621.09;;;5.57;70.35
23261;BME280;11799;47.740;-3.390;2022-12-08T14:40:26;100628.09;;;5.57;69.74
23261;BME280;11799;47.740;-3.390;2022-12-08T14:45:32;100615.28;;;5.52;70.31
23261;BME280;11799;47.740;-3.390;2022-12-08T14:48:20;100619.50;;;5.55;70.94
23261;BME280;11799;47.740;-3.390;2022-12-08T14:53:24;100613.50;;;5.53;71.15
23261;BME280;11799;47.740;-3.390;2022-12-08T14:55:50;100613.59;;;5.51;71.47